createdAt,value
2023-03-24T00:01:47.252Z,0
2023-03-24T00:07:06.534Z,0
2023-03-24T00:12:25.586Z,0
2023-03-24T00:17:44.991Z,0
2023-03-24T00:23:03.795Z,0
2023-03-24T00:33:42.839Z,0
2023-03-24T00:39:02.389Z,0
2023-03-24T00:44:21.469Z,0
2023-03-24T00:49:41.060Z,0
2023-03-24T00:55:00.272Z,0
2023-03-24T01:00:19.776Z,0
2023-03-24T01:05:39.252Z,0
2023-03-24T01:10:58.118Z,0
2023-03-24T01:16:17.843Z,0
2023-03-24T01:21:36.796Z,0
2023-03-24T01:26:55.956Z,0
2023-03-24T01:32:14.784Z,0
2023-03-24T01:37:34.334Z,0
2023-03-24T01:42:53.335Z,0
2023-03-24T01:48:12.912Z,0
2023-03-24T01:53:32.132Z,0
2023-03-24T01:58:50.871Z,0
2023-03-24T02:04:09.814Z,0
2023-03-24T02:14:48.140Z,0
2023-03-24T02:20:07.517Z,0
2023-03-24T02:25:26.575Z,0
2023-03-24T02:30:45.911Z,0
2023-03-24T02:36:05.451Z,0
2023-03-24T02:41:25.056Z,0
2023-03-24T02:46:44.980Z,0
2023-03-24T02:52:03.349Z,0
2023-03-24T02:57:22.645Z,0
2023-03-24T03:02:41.898Z,0
2023-03-24T03:08:01.024Z,0
2023-03-24T03:13:20.730Z,0
2023-03-24T03:18:40.403Z,0
2023-03-24T03:23:59.478Z,0
2023-03-24T03:29:19.016Z,0
2023-03-24T03:34:38.534Z,0
2023-03-24T03:39:57.473Z,0
2023-03-24T03:45:16.793Z,0
2023-03-24T03:50:36.438Z,0
2023-03-24T03:55:55.239Z,0
2023-03-24T04:01:14.736Z,0
2023-03-24T04:06:34.444Z,0
2023-03-24T04:11:53.382Z,0
2023-03-24T04:17:12.642Z,0
2023-03-24T04:22:32.354Z,0
2023-03-24T04:33:10.421Z,0
2023-03-24T04:38:29.328Z,0
2023-03-24T04:43:48.486Z,0
2023-03-24T04:49:07.919Z,0
2023-03-24T04:54:27.172Z,0
2023-03-24T04:59:46.268Z,0
2023-03-24T05:05:05.484Z,0
2023-03-24T05:10:25.084Z,0
2023-03-24T05:15:43.915Z,0
2023-03-24T05:21:02.587Z,0
2023-03-24T05:26:22.241Z,0
2023-03-24T05:31:41.038Z,0
2023-03-24T05:36:59.824Z,0
2023-03-24T05:42:18.628Z,4
2023-03-24T05:47:37.875Z,7
2023-03-24T05:52:57.495Z,9
2023-03-24T05:58:16.936Z,18
2023-03-24T06:03:36.322Z,23.72
2023-03-24T06:08:55.246Z,28.87
2023-03-24T06:14:14.992Z,25.73
2023-03-24T06:19:34.635Z,27.41
2023-03-24T06:24:54.050Z,32.17
2023-03-24T06:30:13.658Z,41.76
2023-03-24T06:35:32.784Z,44.59
2023-03-24T06:40:51.510Z,54.4
2023-03-24T06:46:10.626Z,72.42
2023-03-24T06:51:29.380Z,62.94
2023-03-24T06:56:48.339Z,74.53
2023-03-24T07:02:07.224Z,69
2023-03-24T07:12:45.164Z,77.94
2023-03-24T07:18:05.037Z,47.58
2023-03-24T07:23:24.066Z,48.83
2023-03-24T07:28:43.205Z,69.99
2023-03-24T07:34:02.262Z,84.13
2023-03-24T07:44:39.994Z,73.31
2023-03-24T07:55:18.556Z,72.47
2023-03-24T08:00:37.306Z,83.37
2023-03-24T08:11:16.266Z,88.14
2023-03-24T08:16:35.272Z,68.61
2023-03-24T08:27:13.908Z,56.63
2023-03-24T08:37:51.650Z,99.7
2023-03-24T08:43:10.640Z,133.26
2023-03-24T08:48:30.294Z,147.61
2023-03-24T08:53:49.283Z,113.24
2023-03-24T08:59:08.771Z,116.6
2023-03-24T09:04:28.087Z,121.77
2023-03-24T09:09:47.170Z,163.09
2023-03-24T09:15:06.254Z,182.48
2023-03-24T09:20:25.595Z,206.52
2023-03-24T09:25:44.502Z,183.78
2023-03-24T09:31:03.848Z,130.54
2023-03-24T09:36:23.039Z,86.83
2023-03-24T09:41:42.489Z,94.59
2023-03-24T09:47:01.776Z,74.4
2023-03-24T09:52:21.201Z,82.17
2023-03-24T09:57:40.868Z,87.4
2023-03-24T10:02:59.754Z,110.81
2023-03-24T10:08:19.225Z,124.25
2023-03-24T10:14:04.404Z,126.69
2023-03-24T10:19:22.604Z,133.59
2023-03-24T10:24:42.212Z,107.37
2023-03-24T10:35:20.705Z,301.66
2023-03-24T10:40:39.569Z,194.71
2023-03-24T10:45:59.053Z,159.61
2023-03-24T10:51:18.480Z,133.37
2023-03-24T10:56:38.028Z,129.35
2023-03-24T11:01:57.160Z,407.32
2023-03-24T11:07:16.365Z,296.39
2023-03-24T11:12:35.814Z,298.85
2023-03-24T11:23:14.036Z,166.25
2023-03-24T11:28:32.861Z,121.45
2023-03-24T11:33:52.463Z,142.18
2023-03-24T11:39:12.064Z,217.94
2023-03-24T11:44:30.801Z,244.16
2023-03-24T11:49:49.783Z,208.95
2023-03-24T11:55:09.153Z,124.1
2023-03-24T12:00:29.704Z,115.4
2023-03-24T12:05:49.610Z,213.52
2023-03-24T12:11:06.925Z,140.18
2023-03-24T12:16:26.055Z,351.8
2023-03-24T12:21:44.920Z,576.48
2023-03-24T12:27:03.901Z,12.54
2023-03-24T12:32:23.365Z,388.62
2023-03-24T12:37:42.372Z,192.29
2023-03-24T12:43:01.179Z,241.22
2023-03-24T12:48:20.216Z,234.15
2023-03-24T12:53:39.236Z,203.35
2023-03-24T12:58:58.402Z,96.15
2023-03-24T13:04:17.197Z,73.92
2023-03-24T13:09:36.340Z,131.42
2023-03-24T13:14:55.398Z,131.55
2023-03-24T13:20:14.909Z,141.66
2023-03-24T13:25:34.199Z,192.2
2023-03-24T13:36:12.646Z,150.91
2023-03-24T13:41:31.892Z,113.22
2023-03-24T13:46:51.615Z,104.44
2023-03-24T13:52:10.598Z,100.92
2023-03-24T13:57:30.248Z,117.66
2023-03-24T14:02:49.287Z,150.97
2023-03-24T14:08:08.967Z,154.56
2023-03-24T14:13:28.521Z,154.54
2023-03-24T14:18:47.819Z,94.81
2023-03-24T14:24:06.598Z,107.16
2023-03-24T14:29:26.486Z,230.58
2023-03-24T14:34:45.872Z,248.47
2023-03-24T14:40:05.521Z,317.44
2023-03-24T14:45:24.823Z,455.92
2023-03-24T14:50:44.003Z,213.87
2023-03-24T14:56:03.392Z,162.62
2023-03-24T15:01:22.651Z,129.1
2023-03-24T15:06:41.551Z,159.1
2023-03-24T15:12:01.060Z,151.91
2023-03-24T15:17:20.256Z,146.62
2023-03-24T15:22:39.608Z,133.35
2023-03-24T15:27:58.999Z,124.75
2023-03-24T15:33:17.838Z,124.5
2023-03-24T15:38:36.781Z,110.33
2023-03-24T15:43:56.389Z,101.46
2023-03-24T15:49:15.872Z,89.11
2023-03-24T15:54:34.488Z,97.11
2023-03-24T15:59:54.068Z,80.03
2023-03-24T16:10:32.525Z,73.82
2023-03-24T16:15:52.033Z,75.97
2023-03-24T16:21:11.660Z,71.78
2023-03-24T16:26:30.925Z,74.66
2023-03-24T16:31:50.487Z,74.42
2023-03-24T16:37:09.610Z,64.27
2023-03-24T16:42:28.837Z,60.15
2023-03-24T16:47:48.467Z,60.73
2023-03-24T16:53:08.030Z,52.58
2023-03-24T16:58:27.380Z,50
2023-03-24T17:03:46.421Z,40.05
2023-03-24T17:09:05.232Z,33.54
2023-03-24T17:14:24.342Z,31.22
2023-03-24T17:19:43.240Z,29.36
2023-03-24T17:25:02.926Z,29.38
2023-03-24T17:30:22.091Z,26.88
2023-03-24T17:35:41.638Z,24.3
2023-03-24T17:41:00.869Z,21.38
2023-03-24T17:46:20.328Z,18.78
2023-03-24T17:51:39.298Z,4
2023-03-24T17:57:06.944Z,0
2023-03-24T18:02:18.494Z,0
2023-03-24T18:07:37.220Z,0
2023-03-24T18:12:57.154Z,0
2023-03-24T18:23:35.158Z,0
2023-03-24T18:28:54.777Z,0
2023-03-24T18:34:14.160Z,0
2023-03-24T18:39:32.937Z,0
2023-03-24T18:44:52.634Z,0
2023-03-24T18:50:12.055Z,0
2023-03-24T18:55:31.209Z,0
2023-03-24T19:00:50.949Z,0
2023-03-24T19:06:09.728Z,0
2023-03-24T19:11:28.656Z,0
2023-03-24T19:16:47.614Z,0
2023-03-24T19:22:07.174Z,0
2023-03-24T19:27:26.184Z,0
2023-03-24T19:32:45.399Z,0
2023-03-24T19:38:04.947Z,0
2023-03-24T19:43:23.697Z,0
2023-03-24T19:48:44.025Z,0
2023-03-24T19:59:22.058Z,0
2023-03-24T20:04:41.003Z,0
2023-03-24T20:10:00.244Z,0
2023-03-24T20:15:19.111Z,0
2023-03-24T20:20:37.879Z,0
2023-03-24T20:25:57.466Z,0
2023-03-24T20:31:24.507Z,0
2023-03-24T20:36:36.283Z,0
2023-03-24T20:47:13.893Z,0
2023-03-24T20:57:52.242Z,0
2023-03-24T21:03:11.524Z,0
2023-03-24T21:13:50.819Z,0
2023-03-24T21:19:09.717Z,0
2023-03-24T21:24:28.695Z,0
2023-03-24T21:29:47.663Z,0
2023-03-24T21:40:25.624Z,0
2023-03-24T21:45:44.707Z,0
2023-03-24T21:51:03.779Z,0
2023-03-24T21:56:22.775Z,0
2023-03-24T22:01:42.500Z,0
2023-03-24T22:07:01.218Z,0
2023-03-24T22:12:20.672Z,0
2023-03-24T22:22:58.990Z,0
2023-03-24T22:28:18.689Z,0
2023-03-24T22:33:37.896Z,0
2023-03-24T22:38:57.367Z,0
2023-03-24T22:49:36.335Z,0
2023-03-24T22:54:55.789Z,0
2023-03-24T23:00:15.293Z,0
2023-03-24T23:05:34.898Z,0
2023-03-24T23:10:53.925Z,0
2023-03-24T23:16:13.144Z,0
2023-03-24T23:21:32.212Z,0
2023-03-24T23:26:51.660Z,0
2023-03-24T23:32:11.392Z,0
2023-03-24T23:37:30.711Z,0
2023-03-24T23:42:50.269Z,0
2023-03-24T23:48:09.537Z,0
2023-03-24T23:53:28.310Z,0
2023-03-24T23:58:47.424Z,0
